Hauptseite
METAR-TAF:

METAR-TAF

Flughäfen :

Basel-Mülhausen, Frankreich

Flughafen Basel-Mülhausen

Breite: 47-36N, Länge: 007-31E, Höhe: 270 m

Beobachtung

Neuester Wetterbericht von vor 37 Minuten, um 21:30 UTC
Wind 8 kt aus Ost/Nordost, variierte zwischen Nordost und Ost/Südost
Temperatur 1°C
Luftfeuchtigkeit 51%
Luftdruck 1016 hPa
Sichtweite 10 km oder mehr
Durchbrochene Bewölkung in der Höhe von 4300 ft

METAR: LFSB 242130Z 07008KT 050V110 9999 BKN043 01/M08 Q1016 NOSIG

Zeit: 23:07 (22:07 UTC)

Prognose

Neuester Wetterbericht von vor 5 Stunden und 7 Minuten, um 17:00 UTC
Gültige Prognose vom 24 um 18 UTC bis 25 um 18 UTC
Wind 8 kt aus Ost
Sichtweite 10 km oder mehr
keine Wolken unter 1500 m und keine Kumulonimbus oder Gewitterwolken

TAF: LFSB 241700Z 2418/2518 10008KT CAVOK

Wetterbeobachtungen und Prognosen von mehr als 4000 Flughäfen (METAR und TAF Bericht).

Die verfügbaren Stationen werden durch gelbe und rote Markierungen auf der Karte dargestellt.

Führen Sie die Maus auf sie, um den Namen der Station zu sehen.

Darauf klicken, um die Beobachtung von Wetterbeobachtungen und Prognosen zu sehen.

Um die Karte zu ändern : klicken Sie auf den grünen Tasten mit einem schwarzen Kreuz Zum Vergrößern, auf den grünen Button mit einem Gedankenstrich zu verkleinern, oder auf die grünen Pfeile für benachbarte Karten.


METAR-TAF: